createdAt,value
2016-12-01T00:00:30.157Z,79.49
2016-12-01T00:01:30.266Z,79.02
2016-12-01T00:02:30.091Z,79.3
2016-12-01T00:03:30.741Z,79.11
2016-12-01T00:04:30.816Z,79.49
2016-12-01T00:05:30.826Z,79.02
2016-12-01T00:06:30.321Z,78.92
2016-12-01T00:07:30.139Z,79.21
2016-12-01T00:08:30.203Z,79.3
2016-12-01T00:09:30.317Z,79.3
2016-12-01T00:10:30.181Z,79.39
2016-12-01T00:11:30.226Z,79.21
2016-12-01T00:12:30.133Z,79.49
2016-12-01T00:13:30.158Z,79.68
2016-12-01T00:14:30.159Z,79.49
2016-12-01T00:15:30.313Z,79.68
2016-12-01T00:16:30.152Z,79.58
2016-12-01T00:17:30.151Z,79.39
2016-12-01T00:18:30.127Z,79.49
2016-12-01T00:19:30.205Z,79.87
2016-12-01T00:20:30.295Z,79.87
2016-12-01T00:21:30.154Z,79.87
2016-12-01T00:22:30.483Z,79.87
2016-12-01T00:23:30.146Z,79.96
2016-12-01T00:24:30.221Z,80.06
2016-12-01T00:25:30.210Z,79.96
2016-12-01T00:26:30.173Z,80.06
2016-12-01T00:27:30.267Z,80.15
2016-12-01T00:28:30.272Z,80.06
2016-12-01T00:29:30.341Z,80.06
2016-12-01T00:30:30.220Z,80.15
2016-12-01T00:31:30.211Z,79.87
2016-12-01T00:32:30.214Z,80.06
2016-12-01T00:33:30.426Z,80.06
2016-12-01T00:34:30.176Z,80.15
2016-12-01T00:35:30.255Z,79.77
2016-12-01T00:36:30.131Z,79.77
2016-12-01T00:37:30.262Z,79.87
2016-12-01T00:38:30.640Z,79.77
2016-12-01T00:39:30.029Z,79.96
2016-12-01T00:40:30.108Z,80.34
2016-12-01T00:41:30.271Z,80.25
2016-12-01T00:42:30.117Z,80.82
2016-12-01T00:43:30.253Z,80.34
2016-12-01T00:44:30.231Z,80.53
2016-12-01T00:45:30.156Z,80.82
2016-12-01T00:46:30.193Z,80.91
2016-12-01T00:47:30.167Z,80.82
2016-12-01T00:48:30.070Z,80.72
2016-12-01T00:49:30.213Z,80.72
2016-12-01T00:50:30.221Z,80.91
2016-12-01T00:51:30.191Z,81.2
2016-12-01T00:52:30.210Z,81.14
2016-12-01T00:53:30.207Z,80.82
2016-12-01T00:54:30.206Z,81.29
2016-12-01T00:55:30.201Z,80.95
2016-12-01T00:56:30.112Z,81.01
2016-12-01T00:57:30.080Z,81.05
2016-12-01T00:58:30.150Z,80.91
2016-12-01T00:59:30.174Z,80.95
2016-12-01T01:00:30.185Z,81.05
2016-12-01T01:01:30.152Z,80.86
2016-12-01T01:02:30.132Z,81.1
2016-12-01T01:03:30.201Z,81.33
2016-12-01T01:04:30.120Z,81.38
2016-12-01T01:05:30.201Z,81.52
2016-12-01T01:06:30.192Z,81.71
2016-12-01T01:07:30.272Z,81.52
2016-12-01T01:08:30.205Z,81.33
2016-12-01T01:09:30.122Z,81.29
2016-12-01T01:10:30.249Z,81.71
2016-12-01T01:11:30.126Z,81.86
2016-12-01T01:12:30.181Z,81.81
2016-12-01T01:13:30.163Z,81.99
2016-12-01T01:14:30.231Z,82.18
2016-12-01T01:15:30.227Z,82.18
2016-12-01T01:16:30.163Z,81.99
2016-12-01T01:17:30.209Z,81.99
2016-12-01T01:18:30.133Z,81.9
2016-12-01T01:19:30.212Z,81.81
2016-12-01T01:20:30.262Z,81.9
2016-12-01T01:21:30.263Z,81.81
2016-12-01T01:22:30.224Z,81.9
2016-12-01T01:23:30.172Z,81.81
2016-12-01T01:24:30.182Z,81.71
2016-12-01T01:25:30.236Z,81.62
2016-12-01T01:26:30.276Z,81.71
2016-12-01T01:27:30.328Z,81.9
2016-12-01T01:28:30.375Z,81.62
2016-12-01T01:29:30.222Z,81.62
2016-12-01T01:30:30.224Z,81.81
2016-12-01T01:31:30.325Z,81.81
2016-12-01T01:32:30.254Z,81.99
2016-12-01T01:33:30.235Z,82.56
2016-12-01T01:34:30.235Z,82.28
2016-12-01T01:35:30.319Z,82.28
2016-12-01T01:36:30.185Z,82.18
2016-12-01T01:37:30.213Z,82.37
2016-12-01T01:38:30.262Z,82.18
2016-12-01T01:39:30.265Z,82.85
2016-12-01T01:40:30.234Z,82.85
2016-12-01T01:41:30.359Z,82.85
2016-12-01T01:42:30.282Z,82.66
2016-12-01T01:43:30.251Z,82.37
2016-12-01T01:44:30.205Z,82.56
2016-12-01T01:45:30.347Z,82.56
2016-12-01T01:46:30.205Z,82.66
2016-12-01T01:47:30.370Z,83.32
2016-12-01T01:48:30.233Z,82.28
2016-12-01T01:49:30.197Z,83.13
2016-12-01T01:50:30.257Z,82.85
2016-12-01T01:51:30.220Z,83.04
2016-12-01T01:52:30.247Z,82.94
2016-12-01T01:53:30.308Z,82.37
2016-12-01T01:54:30.230Z,82.85
2016-12-01T01:55:30.319Z,82.94
2016-12-01T01:56:30.217Z,83.23
2016-12-01T01:57:30.241Z,82.66
2016-12-01T01:58:30.303Z,82.85
2016-12-01T01:59:30.400Z,82.85
2016-12-01T02:00:30.348Z,82.85
2016-12-01T02:01:30.253Z,82.66
2016-12-01T02:02:30.247Z,83.42
2016-12-01T02:03:30.324Z,83.13
2016-12-01T02:04:30.282Z,83.42
2016-12-01T02:05:30.297Z,83.32
2016-12-01T02:06:30.237Z,83.32
2016-12-01T02:07:30.298Z,83.32
2016-12-01T02:08:30.210Z,83.13
2016-12-01T02:09:30.275Z,83.13
2016-12-01T02:10:30.240Z,83.32
2016-12-01T02:11:30.361Z,83.8
2016-12-01T02:12:31.519Z,83.7
2016-12-01T02:13:30.249Z,83.61
2016-12-01T02:14:30.242Z,83.7
2016-12-01T02:15:30.310Z,83.42
2016-12-01T02:16:30.189Z,83.7
2016-12-01T02:17:30.348Z,83.61
2016-12-01T02:18:30.230Z,83.61
2016-12-01T02:19:30.352Z,83.98
2016-12-01T02:20:30.401Z,84.08
2016-12-01T02:21:30.262Z,83.8
2016-12-01T02:22:30.275Z,83.89
2016-12-01T02:23:30.378Z,84.08
2016-12-01T02:24:30.228Z,83.98
2016-12-01T02:25:30.380Z,84.17
2016-12-01T02:26:30.180Z,83.98
2016-12-01T02:27:30.343Z,84.17
2016-12-01T02:28:30.301Z,84.46
2016-12-01T02:29:30.417Z,84.55
2016-12-01T02:30:30.347Z,84.46
2016-12-01T02:31:30.433Z,84.36
2016-12-01T02:32:30.411Z,84.27
2016-12-01T02:33:30.420Z,84.94
2016-12-01T02:34:30.221Z,84.84
2016-12-01T02:35:30.435Z,84.65
2016-12-01T02:36:30.292Z,84.65
2016-12-01T02:37:30.300Z,84.74
2016-12-01T02:38:30.206Z,84.46
2016-12-01T02:39:30.353Z,84.74
2016-12-01T02:40:30.340Z,84.74
2016-12-01T02:41:30.402Z,85.13
2016-12-01T02:42:30.193Z,84.74
2016-12-01T02:43:30.320Z,84.74
2016-12-01T02:44:30.197Z,85.13
2016-12-01T02:45:30.389Z,85.13
2016-12-01T02:46:30.237Z,85.41
2016-12-01T02:47:30.293Z,85.13
2016-12-01T02:48:30.278Z,85.41
2016-12-01T02:49:30.290Z,84.84
2016-12-01T02:50:30.304Z,85.13
2016-12-01T02:51:30.200Z,85.78
2016-12-01T02:52:30.236Z,85.31
2016-12-01T02:53:30.309Z,85.6
2016-12-01T02:54:30.331Z,85.6
2016-12-01T02:55:30.287Z,85.6
2016-12-01T02:56:30.279Z,85.6
2016-12-01T02:57:31.611Z,85.6
2016-12-01T02:58:30.261Z,85.31
2016-12-01T02:59:30.254Z,85.31
2016-12-01T03:00:30.322Z,85.31
2016-12-01T03:01:30.309Z,85.41
2016-12-01T03:02:30.240Z,85.5
2016-12-01T03:03:30.347Z,85.31
2016-12-01T03:04:30.305Z,85.41
2016-12-01T03:05:30.423Z,85.5
2016-12-01T03:06:30.277Z,85.41
2016-12-01T03:07:30.305Z,85.97
2016-12-01T03:08:30.221Z,85.88
2016-12-01T03:09:30.292Z,85.5
2016-12-01T03:10:30.383Z,85.41
2016-12-01T03:11:30.296Z,85.6
2016-12-01T03:12:30.259Z,85.5
2016-12-01T03:13:30.263Z,85.5
2016-12-01T03:14:30.340Z,85.6
2016-12-01T03:15:30.385Z,85.5
2016-12-01T03:16:30.240Z,85.41
2016-12-01T03:17:30.373Z,85.6
2016-12-01T03:18:30.348Z,85.5
2016-12-01T03:19:30.302Z,85.6
2016-12-01T03:20:30.383Z,85.31
2016-12-01T03:21:30.207Z,85.41
2016-12-01T03:22:30.406Z,85.5
2016-12-01T03:23:30.310Z,85.6
2016-12-01T03:24:30.223Z,85.41
2016-12-01T03:25:30.478Z,85.6
2016-12-01T03:26:30.351Z,85.31
2016-12-01T03:27:30.404Z,85.41
2016-12-01T03:28:30.339Z,85.5
2016-12-01T03:29:30.278Z,85.41
2016-12-01T03:30:30.384Z,85.69
2016-12-01T03:31:30.266Z,85.41
2016-12-01T03:32:30.262Z,85.41
2016-12-01T03:33:30.399Z,85.41
2016-12-01T03:34:30.314Z,85.31
2016-12-01T03:35:30.460Z,85.13
2016-12-01T03:36:30.297Z,85.31
2016-12-01T03:37:30.400Z,85.5
2016-12-01T03:38:30.402Z,85.5
2016-12-01T03:39:30.364Z,85.31
2016-12-01T03:40:30.396Z,85.6
2016-12-01T03:41:30.272Z,85.5
2016-12-01T03:42:30.375Z,85.6
2016-12-01T03:43:30.472Z,85.5
2016-12-01T03:44:30.419Z,85.6
2016-12-01T03:45:30.442Z,85.5
2016-12-01T03:46:30.366Z,85.5
2016-12-01T03:47:30.449Z,85.41
2016-12-01T03:48:30.283Z,85.5
2016-12-01T03:49:30.420Z,85.41
2016-12-01T03:50:30.411Z,85.5
2016-12-01T03:51:30.303Z,85.03
2016-12-01T03:52:30.291Z,85.6
2016-12-01T03:53:30.209Z,85.22
2016-12-01T03:54:30.413Z,86.07
2016-12-01T03:55:30.264Z,85.31
2016-12-01T03:56:30.464Z,85.31
2016-12-01T03:57:30.324Z,85.88
2016-12-01T03:58:30.343Z,85.41
2016-12-01T03:59:30.431Z,85.5
2016-12-01T04:00:30.407Z,85.41
2016-12-01T04:01:30.373Z,85.5
2016-12-01T04:02:30.238Z,85.41
2016-12-01T04:03:30.395Z,85.5
2016-12-01T04:04:30.292Z,85.41
2016-12-01T04:05:30.328Z,85.5
2016-12-01T04:06:30.449Z,85.5
2016-12-01T04:07:30.400Z,85.97
2016-12-01T04:08:30.337Z,85.69
2016-12-01T04:09:30.509Z,85.6
2016-12-01T04:10:30.406Z,85.88
2016-12-01T04:11:30.462Z,85.5
2016-12-01T04:12:30.441Z,85.6
2016-12-01T04:13:30.370Z,85.5
2016-12-01T04:14:30.353Z,85.97
2016-12-01T04:15:30.579Z,85.41
2016-12-01T04:16:30.399Z,85.97
2016-12-01T04:17:30.436Z,85.97
2016-12-01T04:18:30.373Z,86.07
2016-12-01T04:19:30.431Z,85.78
2016-12-01T04:20:30.369Z,85.69
2016-12-01T04:21:30.441Z,85.78
2016-12-01T04:22:30.424Z,85.97
2016-12-01T04:23:30.300Z,85.97
2016-12-01T04:24:30.380Z,85.78
2016-12-01T04:25:30.503Z,86.16
2016-12-01T04:26:30.298Z,85.97
2016-12-01T04:27:30.357Z,86.07
2016-12-01T04:28:30.309Z,85.97
2016-12-01T04:29:30.250Z,85.97
2016-12-01T04:30:30.371Z,86.07
2016-12-01T04:31:30.377Z,86.07
2016-12-01T04:32:30.381Z,85.97
2016-12-01T04:33:30.415Z,85.97
2016-12-01T04:34:30.395Z,86.07
2016-12-01T04:35:30.319Z,85.97
2016-12-01T04:36:30.338Z,85.97
2016-12-01T04:37:30.467Z,86.16
2016-12-01T04:38:30.425Z,86.26
2016-12-01T04:39:30.364Z,86.16
2016-12-01T04:40:30.403Z,86.55
2016-12-01T04:41:30.435Z,86.35
2016-12-01T04:42:30.413Z,86.26
2016-12-01T04:43:30.423Z,86.26
2016-12-01T04:44:30.352Z,86.07
2016-12-01T04:45:30.369Z,86.26
2016-12-01T04:46:30.463Z,86.35
2016-12-01T04:47:30.502Z,86.45
2016-12-01T04:48:30.347Z,85.78
2016-12-01T04:49:30.467Z,85.97
2016-12-01T04:50:30.400Z,86.16
2016-12-01T04:51:30.434Z,86.16
2016-12-01T04:52:30.363Z,86.07
2016-12-01T04:53:30.368Z,86.16
2016-12-01T04:54:30.355Z,86.16
2016-12-01T04:55:30.329Z,86.26
2016-12-01T04:56:30.358Z,86.45
2016-12-01T04:57:30.368Z,86.16
2016-12-01T04:58:30.450Z,86.35
2016-12-01T04:59:30.479Z,86.35
2016-12-01T05:00:30.335Z,85.97
2016-12-01T05:01:30.450Z,86.26
2016-12-01T05:02:30.378Z,85.97
2016-12-01T05:03:30.371Z,86.16
2016-12-01T05:04:30.354Z,86.55
2016-12-01T05:05:30.346Z,86.26
2016-12-01T05:06:30.394Z,86.07
2016-12-01T05:07:30.526Z,86.16
2016-12-01T05:08:30.527Z,86.35
2016-12-01T05:09:30.449Z,86.16
2016-12-01T05:10:30.424Z,86.55
2016-12-01T05:11:30.627Z,86.26
2016-12-01T05:12:30.530Z,86.35
2016-12-01T05:13:30.426Z,87.21
2016-12-01T05:14:30.369Z,87.12
2016-12-01T05:15:30.601Z,86.83
2016-12-01T05:16:30.432Z,86.64
2016-12-01T05:17:30.405Z,87.21
2016-12-01T05:18:30.419Z,87.12
2016-12-01T05:19:30.485Z,87.12
2016-12-01T05:20:31.210Z,87.3
2016-12-01T05:21:30.488Z,87.49
2016-12-01T05:22:30.667Z,86.83
2016-12-01T05:23:30.500Z,87.12
2016-12-01T05:24:30.537Z,87.49
2016-12-01T05:25:30.597Z,87.3
2016-12-01T05:26:31.769Z,87.49
2016-12-01T05:27:30.574Z,87.87
2016-12-01T05:28:30.439Z,87.3
2016-12-01T05:29:30.454Z,87.49
2016-12-01T05:30:30.414Z,87.4
2016-12-01T05:31:30.572Z,87.68
2016-12-01T05:32:30.416Z,87.59
2016-12-01T05:33:30.649Z,87.49
2016-12-01T05:34:30.495Z,87.59
2016-12-01T05:35:30.446Z,87.49
2016-12-01T05:36:30.373Z,87.3
2016-12-01T05:37:30.500Z,87.21
2016-12-01T05:38:30.451Z,86.93
2016-12-01T05:39:30.515Z,87.3
2016-12-01T05:40:30.564Z,87.3
2016-12-01T05:41:30.554Z,87.21
2016-12-01T05:42:30.471Z,87.12
2016-12-01T05:43:30.567Z,86.83
2016-12-01T05:44:30.464Z,86.93
2016-12-01T05:45:30.515Z,87.12
2016-12-01T05:46:30.496Z,87.12
2016-12-01T05:47:30.549Z,86.93
2016-12-01T05:48:30.417Z,86.74
2016-12-01T05:49:30.554Z,87.4
2016-12-01T05:50:30.507Z,87.21
2016-12-01T05:51:30.716Z,87.3
2016-12-01T05:52:30.644Z,87.12
2016-12-01T05:53:30.549Z,87.21
2016-12-01T05:54:30.538Z,87.4
2016-12-01T05:55:30.566Z,87.4
2016-12-01T05:56:30.537Z,87.21
2016-12-01T05:57:30.464Z,87.3
2016-12-01T05:58:30.667Z,87.3
2016-12-01T05:59:30.643Z,86.83
2016-12-01T06:00:30.434Z,87.12
2016-12-01T06:01:30.572Z,86.93
2016-12-01T06:02:30.561Z,86.93
2016-12-01T06:03:30.464Z,87.49
2016-12-01T06:04:30.447Z,87.49
2016-12-01T06:05:30.493Z,87.12
2016-12-01T06:06:30.490Z,87.49
2016-12-01T06:07:30.475Z,87.3
2016-12-01T06:08:30.434Z,87.21
2016-12-01T06:09:30.689Z,87.87
2016-12-01T06:10:30.573Z,87.12
2016-12-01T06:11:30.532Z,87.12
2016-12-01T06:12:30.564Z,87.49
2016-12-01T06:13:30.555Z,87.21
2016-12-01T06:14:30.433Z,87.49
2016-12-01T06:15:30.592Z,88.06
2016-12-01T06:16:30.747Z,87.59
2016-12-01T06:17:30.589Z,87.3
2016-12-01T06:18:30.563Z,87.49
2016-12-01T06:19:30.527Z,87.21
2016-12-01T06:20:30.495Z,87.59
2016-12-01T06:21:30.631Z,87.68
2016-12-01T06:22:30.434Z,87.21
2016-12-01T06:23:30.671Z,87.49
2016-12-01T06:24:30.476Z,87.21
2016-12-01T06:25:30.596Z,87.12
2016-12-01T06:26:30.484Z,87.21
2016-12-01T06:27:30.746Z,87.49
2016-12-01T06:28:30.477Z,87.49
2016-12-01T06:29:30.581Z,87.49
2016-12-01T06:30:30.484Z,88.06
2016-12-01T06:31:30.575Z,88.44
2016-12-01T06:32:30.489Z,88.16
2016-12-01T06:33:30.554Z,87.77
2016-12-01T06:34:30.453Z,87.49
2016-12-01T06:35:30.674Z,87.49
2016-12-01T06:36:30.629Z,87.59
2016-12-01T06:37:31.340Z,87.49
2016-12-01T06:38:30.883Z,87.59
2016-12-01T06:39:31.295Z,87.49
2016-12-01T06:40:30.527Z,87.3
2016-12-01T06:41:30.651Z,87.59
2016-12-01T06:42:30.555Z,87.3
2016-12-01T06:43:30.622Z,87.49
2016-12-01T06:44:30.626Z,87.68
2016-12-01T06:45:30.615Z,87.97
2016-12-01T06:46:30.504Z,87.59
2016-12-01T06:47:30.547Z,87.49
2016-12-01T06:48:30.475Z,87.49
2016-12-01T06:49:30.653Z,87.49
2016-12-01T06:50:30.473Z,87.49
2016-12-01T06:51:30.581Z,88.16
2016-12-01T06:52:30.533Z,88.06
2016-12-01T06:53:30.653Z,87.97
2016-12-01T06:54:30.553Z,87.97
2016-12-01T06:55:30.605Z,88.06
2016-12-01T06:56:30.599Z,88.06
2016-12-01T06:57:30.570Z,88.16
2016-12-01T06:58:30.531Z,88.25
2016-12-01T06:59:30.636Z,88.16
2016-12-01T07:00:30.566Z,88.06
2016-12-01T07:01:30.555Z,88.35
2016-12-01T07:02:30.541Z,88.06
2016-12-01T07:03:30.612Z,88.63
2016-12-01T07:04:30.506Z,88.92
2016-12-01T07:05:30.565Z,88.82
2016-12-01T07:06:30.572Z,88.82
2016-12-01T07:07:30.592Z,88.54
2016-12-01T07:08:30.520Z,88.63
2016-12-01T07:09:30.697Z,87.97
2016-12-01T07:10:30.550Z,88.73
2016-12-01T07:11:30.605Z,88.63
2016-12-01T07:12:30.531Z,88.54
2016-12-01T07:13:30.561Z,88.35
2016-12-01T07:14:30.533Z,88.63
2016-12-01T07:15:30.472Z,88.44
2016-12-01T07:16:30.557Z,88.54
2016-12-01T07:17:30.588Z,88.25
2016-12-01T07:18:31.095Z,88.35
2016-12-01T07:19:30.731Z,88.44
2016-12-01T07:20:30.472Z,88.63
2016-12-01T07:21:30.663Z,88.54
2016-12-01T07:22:30.522Z,88.25
2016-12-01T07:23:31.858Z,88.63
2016-12-01T07:24:30.534Z,88.92
2016-12-01T07:25:30.582Z,88.54
2016-12-01T07:26:30.498Z,88.44
2016-12-01T07:27:30.560Z,88.54
2016-12-01T07:28:30.602Z,89.01
2016-12-01T07:29:30.603Z,88.63
2016-12-01T07:30:30.527Z,88.73
2016-12-01T07:31:30.468Z,88.63
2016-12-01T07:32:30.635Z,88.44
2016-12-01T07:33:30.909Z,88.73
2016-12-01T07:34:30.661Z,88.92
2016-12-01T07:35:30.607Z,89.11
2016-12-01T07:36:30.831Z,88.92
2016-12-01T07:37:30.527Z,88.92
2016-12-01T07:38:30.914Z,88.92
2016-12-01T07:39:30.760Z,88.92
2016-12-01T07:40:30.687Z,89.11
2016-12-01T07:41:30.795Z,88.82
2016-12-01T07:42:30.595Z,88.92
2016-12-01T07:43:30.652Z,88.44
2016-12-01T07:44:30.599Z,88.35
2016-12-01T07:45:30.723Z,88.44
2016-12-01T07:46:30.502Z,89.01
2016-12-01T07:48:49.323Z,88.63
2016-12-01T07:49:49.333Z,88.63
2016-12-01T07:50:49.376Z,88.44
2016-12-01T07:51:49.300Z,88.73
2016-12-01T07:52:49.238Z,88.44
2016-12-01T07:53:49.322Z,88.25
2016-12-01T07:54:49.373Z,88.54
2016-12-01T07:55:49.371Z,88.25
2016-12-01T07:56:49.308Z,88.35
2016-12-01T07:57:49.361Z,88.63
2016-12-01T07:58:49.363Z,88.63
2016-12-01T07:59:49.424Z,88.63
2016-12-01T08:00:49.391Z,88.63
2016-12-01T08:01:49.382Z,88.54
2016-12-01T08:02:49.360Z,88.25
2016-12-01T08:03:49.349Z,88.44
2016-12-01T08:04:49.388Z,88.82
2016-12-01T08:05:49.448Z,88.54
2016-12-01T08:06:49.490Z,88.35
2016-12-01T08:07:49.356Z,88.44
2016-12-01T08:08:49.412Z,88.82
2016-12-01T08:09:49.460Z,88.63
2016-12-01T08:10:49.351Z,88.35
2016-12-01T08:11:49.415Z,88.25
2016-12-01T08:12:49.360Z,88.63
2016-12-01T08:13:49.717Z,88.54
2016-12-01T08:14:49.468Z,88.68
2016-12-01T08:15:49.610Z,88.48
2016-12-01T08:16:49.405Z,88.68
2016-12-01T08:17:49.448Z,88.63
2016-12-01T08:18:49.432Z,88.68
2016-12-01T08:19:49.372Z,88.63
2016-12-01T08:20:49.434Z,88.16
2016-12-01T08:21:49.509Z,88.96
2016-12-01T08:22:49.389Z,88.87
2016-12-01T08:23:49.383Z,88.63
2016-12-01T08:24:49.412Z,88.68
2016-12-01T08:25:49.384Z,88.63
2016-12-01T08:26:50.004Z,88.82
2016-12-01T08:27:49.302Z,88.73
2016-12-01T08:28:49.440Z,88.68
2016-12-01T08:29:49.355Z,88.68
2016-12-01T08:30:49.409Z,88.68
2016-12-01T08:31:49.446Z,88.29
2016-12-01T08:32:49.359Z,88.92
2016-12-01T08:33:49.429Z,88.54
2016-12-01T08:34:49.400Z,89.15
2016-12-01T08:35:49.341Z,88.77
2016-12-01T08:36:49.452Z,89.11
2016-12-01T08:37:49.381Z,89.15
2016-12-01T08:38:49.425Z,88.87
2016-12-01T08:39:49.423Z,89.06
2016-12-01T08:40:50.210Z,88.77
2016-12-01T08:41:49.278Z,88.77
2016-12-01T08:42:49.334Z,88.87
2016-12-01T08:43:49.358Z,88.82
2016-12-01T08:44:49.314Z,88.87
2016-12-01T08:45:49.328Z,88.77
2016-12-01T08:46:49.367Z,88.58
2016-12-01T08:47:49.387Z,88.87
2016-12-01T08:48:49.397Z,88.77
2016-12-01T08:49:49.340Z,88.68
2016-12-01T08:50:49.403Z,89.15
2016-12-01T08:51:49.308Z,88.48
2016-12-01T08:52:49.316Z,89.15
2016-12-01T08:53:49.397Z,88.48
2016-12-01T08:54:49.454Z,88.87
2016-12-01T08:55:49.503Z,88.87
2016-12-01T08:56:49.388Z,88.58
2016-12-01T08:57:49.400Z,88.48
2016-12-01T08:58:49.407Z,88.48
2016-12-01T08:59:49.452Z,88.68
2016-12-01T09:00:49.536Z,88.58
2016-12-01T09:01:49.399Z,88.58
2016-12-01T09:02:49.540Z,88.2
2016-12-01T09:03:49.451Z,88.39
2016-12-01T09:04:49.378Z,88.01
2016-12-01T09:05:49.465Z,88.2
2016-12-01T09:06:49.442Z,88.1
2016-12-01T09:07:49.390Z,88.2
2016-12-01T09:08:49.360Z,88.2
2016-12-01T09:09:49.324Z,87.82
2016-12-01T09:10:49.396Z,88.01
2016-12-01T09:11:49.347Z,88.2
2016-12-01T09:12:49.436Z,88.1
2016-12-01T09:13:49.415Z,88.2
2016-12-01T09:14:49.440Z,88.48
2016-12-01T09:15:49.462Z,88.15
2016-12-01T09:16:49.411Z,88.2
2016-12-01T09:17:49.468Z,88.34
2016-12-01T09:18:49.336Z,87.73
2016-12-01T09:19:49.377Z,87.58
2016-12-01T09:20:49.430Z,87.68
2016-12-01T09:21:49.406Z,87.77
2016-12-01T09:22:49.448Z,87.68
2016-12-01T09:23:49.438Z,87.2
2016-12-01T09:24:49.392Z,87.11
2016-12-01T09:25:49.500Z,87.39
2016-12-01T09:26:49.382Z,87.11
2016-12-01T09:27:49.461Z,87.01
2016-12-01T09:28:49.516Z,86.72
2016-12-01T09:29:49.451Z,86.82
2016-12-01T09:30:49.408Z,87.01
2016-12-01T09:31:49.523Z,86.91
2016-12-01T09:32:49.376Z,86.72
2016-12-01T09:33:49.397Z,87.11
2016-12-01T09:34:49.372Z,87.2
2016-12-01T09:35:49.486Z,87.3
2016-12-01T09:36:49.373Z,86.44
2016-12-01T09:37:49.432Z,86.44
2016-12-01T09:38:49.464Z,86.25
2016-12-01T09:39:49.431Z,86.11
2016-12-01T09:40:49.480Z,86.11
2016-12-01T09:41:49.450Z,86.07
2016-12-01T09:42:49.567Z,85.53
2016-12-01T09:43:50.146Z,85.53
2016-12-01T09:44:49.400Z,85.35
2016-12-01T09:45:49.475Z,85.44
2016-12-01T09:46:49.443Z,85.16
2016-12-01T09:47:49.345Z,85.25
2016-12-01T09:48:49.361Z,85.16
2016-12-01T09:49:49.392Z,85.72
2016-12-01T09:50:49.388Z,85.53
2016-12-01T09:51:49.482Z,85.16
2016-12-01T09:52:49.600Z,85.35
2016-12-01T09:53:49.420Z,85.16
2016-12-01T09:54:49.503Z,85.25
2016-12-01T09:55:49.624Z,85.35
2016-12-01T09:56:49.413Z,84.87
2016-12-01T09:57:49.400Z,84.59
2016-12-01T09:58:49.439Z,84.11
2016-12-01T09:59:49.455Z,84.11
2016-12-01T10:00:49.504Z,83.73
2016-12-01T10:01:49.480Z,84.01
2016-12-01T10:02:49.417Z,84.3
2016-12-01T10:03:49.404Z,84.11
2016-12-01T10:04:49.553Z,84.11
2016-12-01T10:05:49.468Z,84.3
2016-12-01T10:06:49.457Z,84.3
2016-12-01T10:07:49.437Z,84.4
2016-12-01T10:08:49.484Z,84.87
2016-12-01T10:09:49.530Z,84.78
2016-12-01T10:10:49.434Z,84.4
2016-12-01T10:11:49.421Z,84.59
2016-12-01T10:12:49.492Z,84.3
2016-12-01T10:13:49.370Z,84.49
2016-12-01T10:14:49.492Z,84.11
2016-12-01T10:15:49.472Z,84.21
2016-12-01T10:16:49.501Z,84.49
2016-12-01T10:17:49.459Z,84.49
2016-12-01T10:18:49.511Z,84.72
2016-12-01T10:19:49.425Z,84.06
2016-12-01T10:20:49.566Z,84.25
2016-12-01T10:21:49.494Z,84.16
2016-12-01T10:22:49.468Z,84.16
2016-12-01T10:23:49.532Z,84.06
2016-12-01T10:24:49.473Z,84.34
2016-12-01T10:25:49.538Z,84.53
2016-12-01T10:26:49.531Z,84.44
2016-12-01T10:27:49.563Z,83.97
2016-12-01T10:28:49.563Z,84.06
2016-12-01T10:29:49.431Z,83.97
2016-12-01T10:30:49.508Z,84.16
2016-12-01T10:31:49.340Z,84.44
2016-12-01T10:32:49.480Z,84.34
2016-12-01T10:33:49.501Z,84.34
2016-12-01T10:34:49.516Z,84.16
2016-12-01T10:35:49.562Z,84.44
2016-12-01T10:36:49.492Z,84.53
2016-12-01T10:37:49.441Z,84.06
2016-12-01T10:38:49.419Z,84.44
2016-12-01T10:39:49.511Z,84.25
2016-12-01T10:40:49.500Z,84.25
2016-12-01T10:41:49.451Z,84.44
2016-12-01T10:42:49.450Z,84.53
2016-12-01T10:43:49.540Z,84.44
2016-12-01T10:44:49.465Z,84.25
2016-12-01T10:45:49.562Z,84.82
2016-12-01T10:46:49.539Z,84.44
2016-12-01T10:47:49.511Z,84.63
2016-12-01T10:48:49.545Z,85.25
2016-12-01T10:49:49.505Z,85.63
2016-12-01T10:50:49.606Z,85.35
2016-12-01T10:51:49.544Z,86.01
2016-12-01T10:52:49.484Z,86.01
2016-12-01T10:53:49.412Z,86.01
2016-12-01T10:54:49.469Z,86.01
2016-12-01T10:55:49.522Z,85.63
2016-12-01T10:56:49.400Z,86.01
2016-12-01T10:57:49.550Z,85.91
2016-12-01T10:58:49.480Z,85.82
2016-12-01T10:59:49.470Z,85.91
2016-12-01T11:00:49.534Z,86.11
2016-12-01T11:01:49.517Z,86.68
2016-12-01T11:02:49.518Z,86.3
2016-12-01T11:03:49.581Z,86.68
2016-12-01T11:04:49.427Z,86.68
2016-12-01T11:05:49.520Z,86.49
2016-12-01T11:06:49.535Z,86.77
2016-12-01T11:07:49.562Z,86.58
2016-12-01T11:08:49.585Z,86.2
2016-12-01T11:09:49.523Z,86.3
2016-12-01T11:10:49.648Z,86.49
2016-12-01T11:11:49.516Z,86.58
2016-12-01T11:12:49.549Z,86.2
2016-12-01T11:13:49.603Z,86.68
2016-12-01T11:14:49.497Z,86.49
2016-12-01T11:15:49.540Z,86.58
2016-12-01T11:16:49.564Z,86.2
2016-12-01T11:17:49.621Z,86.77
2016-12-01T11:18:49.511Z,86.2
2016-12-01T11:19:49.543Z,86.49
2016-12-01T11:20:49.599Z,86.39
2016-12-01T11:21:49.644Z,86.01
2016-12-01T11:22:49.535Z,86.39
2016-12-01T11:23:49.519Z,86.58
2016-12-01T11:24:49.656Z,86.11
2016-12-01T11:25:49.552Z,86.3
2016-12-01T11:26:49.460Z,86.2
2016-12-01T11:27:49.560Z,86.2
2016-12-01T11:28:49.581Z,86.3
2016-12-01T11:29:49.640Z,86.39
2016-12-01T11:30:49.892Z,86.01
2016-12-01T11:31:49.613Z,86.49
2016-12-01T11:32:49.683Z,86.3
2016-12-01T11:33:49.576Z,86.3
2016-12-01T11:34:49.550Z,86.15
2016-12-01T11:35:49.618Z,86.58
2016-12-01T11:36:49.605Z,86.39
2016-12-01T11:37:49.659Z,86.58
2016-12-01T11:38:49.631Z,86.68
2016-12-01T11:39:49.582Z,86.3
2016-12-01T11:40:49.615Z,86.49
2016-12-01T11:41:49.536Z,87.05
2016-12-01T11:42:49.550Z,87.05
2016-12-01T11:43:49.621Z,87.15
2016-12-01T11:44:49.518Z,87.34
2016-12-01T11:45:49.677Z,87.62
2016-12-01T11:46:49.582Z,87.62
2016-12-01T11:47:49.548Z,87.82
2016-12-01T11:48:49.519Z,87.72
2016-12-01T11:49:49.598Z,87.72
2016-12-01T11:50:49.571Z,87.82
2016-12-01T11:51:49.592Z,87.62
2016-12-01T11:52:49.561Z,87.91
2016-12-01T11:53:49.519Z,87.91
2016-12-01T11:54:49.535Z,87.82
2016-12-01T11:55:49.513Z,87.72
2016-12-01T11:56:49.569Z,87.53
2016-12-01T11:57:49.620Z,87.72
2016-12-01T11:58:49.621Z,87.72
2016-12-01T11:59:49.529Z,87.62
2016-12-01T12:00:49.561Z,87.91
2016-12-01T12:01:49.571Z,87.62
2016-12-01T12:02:49.507Z,87.24
2016-12-01T12:03:49.611Z,87.62
2016-12-01T12:04:49.575Z,87.82
2016-12-01T12:05:49.605Z,87.62
2016-12-01T12:06:49.512Z,87.72
2016-12-01T12:07:49.626Z,87.82
2016-12-01T12:08:49.580Z,87.72
2016-12-01T12:09:49.544Z,87.82
2016-12-01T12:10:49.624Z,87.72
2016-12-01T12:11:49.648Z,87.82
2016-12-01T12:12:49.701Z,87.82
2016-12-01T12:13:49.734Z,88.29
2016-12-01T12:14:49.657Z,87.91
2016-12-01T12:15:49.584Z,87.82
2016-12-01T12:16:49.602Z,87.91
2016-12-01T12:17:49.580Z,88.39
2016-12-01T12:18:49.565Z,88.1
2016-12-01T12:19:49.550Z,88.1
2016-12-01T12:20:49.666Z,88.1
2016-12-01T12:21:49.990Z,88.39
2016-12-01T12:22:49.591Z,88.39
2016-12-01T12:23:49.652Z,88.1
2016-12-01T12:24:49.696Z,88.29
2016-12-01T12:25:49.553Z,88.2
2016-12-01T12:26:49.575Z,88.2
2016-12-01T12:27:49.640Z,88.39
2016-12-01T12:28:49.702Z,88.39
2016-12-01T12:29:49.623Z,88.1
2016-12-01T12:30:49.637Z,88.2
2016-12-01T12:31:49.682Z,88.48
2016-12-01T12:32:49.619Z,87.62
2016-12-01T12:33:49.567Z,88.1
2016-12-01T12:34:49.624Z,87.91
2016-12-01T12:35:49.655Z,88.1
2016-12-01T12:36:49.689Z,88.2
2016-12-01T12:37:49.671Z,88.29
2016-12-01T12:38:49.824Z,88.39
2016-12-01T12:39:49.646Z,88.29
2016-12-01T12:40:49.765Z,88.01
2016-12-01T12:41:49.826Z,88.2
2016-12-01T12:42:49.605Z,88.48
2016-12-01T12:43:49.645Z,88.2
2016-12-01T12:44:49.679Z,88.48
2016-12-01T12:45:49.667Z,88.57
2016-12-01T12:46:49.753Z,88.29
2016-12-01T12:47:49.712Z,88.39
2016-12-01T12:48:50.072Z,87.91
2016-12-01T12:49:49.698Z,89.05
2016-12-01T12:50:49.757Z,88.29
2016-12-01T12:51:49.673Z,88.76
2016-12-01T12:52:49.618Z,88.95
2016-12-01T12:53:49.693Z,89.24
2016-12-01T12:54:49.721Z,88.67
2016-12-01T12:55:49.721Z,88.67
2016-12-01T12:56:49.674Z,88.95
2016-12-01T12:57:49.641Z,88.29